Time;durP1;ratioP1;P1;durP2;ratioP2;P2;SDS_P1;SDS_P2;PMS_P1;PMS_P2;Temp;Humidity;BMP_temperature;BMP_pressure;BME280_temperature;BME280_humidity;BME280_pressure;Samples;Min_cycle;Max_cycle;Signal;HPM_P1;HPM_P2
2021/03/23 00:47:15;;;;;;;37.42;17.20;;;-2.10;99.90;;;;;;4984060;28;20443;-92
2021/03/23 00:50:38;;;;;;;39.78;16.85;;;-2.00;99.90;;;;;;4867866;29;20443;-93
2021/03/23 00:54:20;;;;;;;33.45;15.52;;;-1.80;99.90;;;;;;4814624;29;20951;-93
2021/03/23 00:58:09;;;;;;;39.42;16.75;;;-1.60;99.90;;;;;;4804711;29;20444;-93
2021/03/23 01:01:19;;;;;;;36.60;15.30;;;-1.30;99.90;;;;;;4812817;29;20469;-94
2021/03/23 01:04:43;;;;;;;35.33;15.82;;;-1.20;99.90;;;;;;4768313;30;20487;-94
2021/03/23 01:08:16;;;;;;;37.20;15.73;;;-1.30;99.90;;;;;;4746463;30;20426;-94
2021/03/23 01:12:09;;;;;;;37.33;15.85;;;-1.40;99.90;;;;;;4754705;30;20473;-93
2021/03/23 01:15:38;;;;;;;39.78;15.52;;;-1.30;99.90;;;;;;4767297;30;20502;-94
2021/03/23 01:19:11;;;;;;;40.13;16.58;;;-1.30;99.90;;;;;;4756219;30;20480;-95
2021/03/23 01:22:42;;;;;;;37.65;15.77;;;-1.40;99.90;;;;;;4762036;30;20426;-94
2021/03/23 01:26:37;;;;;;;41.55;16.30;;;-1.30;99.90;;;;;;4731609;30;20843;-96
2021/03/23 02:51:46;;;;;;;31.88;14.00;;;-1.30;99.90;;;;;;6357296;22;20393;-95
2021/03/23 02:55:29;;;;;;;38.70;15.25;;;-1.20;99.90;;;;;;6302362;22;20386;-95
2021/03/23 03:05:06;;;;;;;42.73;15.03;;;-1.30;99.90;;;;;;6305780;22;20438;-93
2021/03/23 03:09:07;;;;;;;43.95;14.57;;;-1.50;99.90;;;;;;6222557;23;20427;-94
2021/03/23 03:12:29;;;;;;;42.75;14.70;;;-1.40;99.90;;;;;;6154458;23;20376;-94
2021/03/23 03:15:36;;;;;;;42.10;14.25;;;-1.30;99.90;;;;;;6185096;23;20379;-93
2021/03/23 03:19:28;;;;;;;39.58;15.07;;;-1.40;99.90;;;;;;6164800;23;20454;-92
2021/03/23 03:23:26;;;;;;;40.38;14.88;;;-1.40;99.90;;;;;;5990726;24;20401;-93
2021/03/23 03:40:12;;;;;;;35.15;14.25;;;-1.60;99.90;;;;;;6255108;23;20397;-93
2021/03/23 03:43:28;;;;;;;35.03;13.55;;;-1.70;99.90;;;;;;6233147;23;20373;-94
2021/03/23 03:53:33;;;;;;;40.63;14.23;;;-1.70;99.90;;;;;;6128969;23;20408;-92
2021/03/23 03:56:18;;;;;;;33.13;13.90;;;-1.70;99.90;;;;;;6080927;23;20422;-93
2021/03/23 03:59:43;;;;;;;39.00;13.27;;;-1.70;99.90;;;;;;6082702;23;20410;-92
2021/03/23 04:03:20;;;;;;;39.47;13.93;;;-1.70;99.90;;;;;;6055101;23;20757;-93
2021/03/23 04:14:08;;;;;;;40.80;13.68;;;-1.70;99.90;;;;;;6034276;23;20378;-93
2021/03/23 04:18:09;;;;;;;37.90;12.65;;;-1.70;99.90;;;;;;5863308;24;20402;-93
2021/03/23 04:21:40;;;;;;;33.17;11.73;;;-1.60;99.90;;;;;;5882489;24;20460;-93
2021/03/23 04:25:00;;;;;;;34.45;10.93;;;-1.60;99.90;;;;;;5800106;24;20400;-93
2021/03/23 04:28:27;;;;;;;37.45;11.00;;;-1.40;99.90;;;;;;5783525;24;20432;-93
2021/03/23 04:31:43;;;;;;;33.92;10.65;;;-1.60;99.90;;;;;;5841679;24;20404;-93
2021/03/23 04:39:35;;;;;;;28.23;10.20;;;-1.30;99.90;;;;;;5854021;24;20481;-93
2021/03/23 04:43:27;;;;;;;30.20;10.57;;;-1.30;99.90;;;;;;5907763;24;20431;-93
2021/03/23 04:47:24;;;;;;;35.42;10.73;;;-1.40;99.90;;;;;;5908593;24;20399;-93
2021/03/23 04:50:39;;;;;;;32.85;9.95;;;-1.50;99.90;;;;;;5764721;24;20411;-94
2021/03/23 04:53:47;;;;;;;38.25;10.63;;;-1.30;99.90;;;;;;5721297;24;20397;-93
2021/03/23 05:01:05;;;;;;;38.23;11.00;;;-1.30;99.90;;;;;;5781070;24;20400;-94
2021/03/23 05:04:13;;;;;;;31.83;10.10;;;-1.30;99.90;;;;;;5801234;24;20400;-94
2021/03/23 05:07:20;;;;;;;38.65;10.95;;;-1.20;99.90;;;;;;5790939;24;20394;-94
2021/03/23 05:11:09;;;;;;;33.67;10.63;;;-1.30;99.90;;;;;;5774580;24;20450;-94
2021/03/23 05:14:40;;;;;;;29.98;10.20;;;-1.20;99.90;;;;;;5829525;24;20399;-93
2021/03/23 05:18:03;;;;;;;36.60;10.38;;;-1.20;99.90;;;;;;5788828;24;20390;-96
2021/03/23 05:32:18;;;;;;;30.27;9.65;;;-0.80;99.90;;;;;;6319278;22;20358;-95
2021/03/23 05:35:55;;;;;;;32.33;10.67;;;-0.80;99.90;;;;;;6255191;22;20450;-94
2021/03/23 05:39:09;;;;;;;30.15;9.80;;;-0.80;99.90;;;;;;6254752;22;20357;-94
2021/03/23 06:03:31;;;;;;;26.23;9.25;;;-0.30;99.90;;;;;;6303490;22;20398;-95
2021/03/23 06:07:08;;;;;;;29.30;8.15;;;-0.10;99.90;;;;;;6276287;22;20421;-94
2021/03/23 06:11:07;;;;;;;30.10;8.80;;;-0.20;99.90;;;;;;6108438;23;20773;-95
2021/03/23 06:22:28;;;;;;;42.95;14.40;;;0.10;99.90;;;;;;6050097;23;20386;-94
2021/03/23 06:29:47;;;;;;;40.97;14.63;;;0.30;99.90;;;;;;6022265;23;20448;-95
2021/03/23 08:04:59;;;;;;;24.90;8.82;;;2.30;99.90;;;;;;6350931;22;20463;-94
2021/03/23 08:08:17;;;;;;;25.33;8.90;;;2.10;99.90;;;;;;6322961;22;20745;-94
2021/03/23 08:11:53;;;;;;;35.28;10.13;;;1.90;99.90;;;;;;6156218;23;20428;-96
2021/03/23 09:43:32;;;;;;;32.13;12.80;;;0.70;99.90;;;;;;6313288;22;21163;-92
2021/03/23 09:46:29;;;;;;;36.58;15.55;;;0.60;99.90;;;;;;6329116;22;20380;-93
2021/03/23 09:49:27;;;;;;;28.90;13.40;;;0.70;99.90;;;;;;6346193;22;20415;-93
2021/03/23 09:56:25;;;;;;;35.30;16.50;;;0.60;99.90;;;;;;6138709;23;20384;-95
2021/03/23 09:59:58;;;;;;;37.80;18.77;;;0.80;99.90;;;;;;6122384;23;20404;-94
2021/03/23 10:03:19;;;;;;;31.85;15.20;;;0.80;99.90;;;;;;6025148;23;20409;-93
2021/03/23 10:07:15;;;;;;;30.33;14.88;;;0.90;99.90;;;;;;5888698;24;20411;-94
2021/03/23 10:11:03;;;;;;;34.40;16.85;;;0.90;99.90;;;;;;6263287;22;20402;-93
2021/03/23 10:47:59;;;;;;;25.33;13.17;;;1.70;99.90;;;;;;6320742;22;20397;-93
2021/03/23 10:51:14;;;;;;;29.38;13.15;;;1.80;99.90;;;;;;6329234;22;20463;-93
2021/03/23 10:54:33;;;;;;;26.75;14.30;;;1.90;99.90;;;;;;6268323;22;20376;-92
2021/03/23 10:57:35;;;;;;;27.65;12.90;;;1.80;99.90;;;;;;6247974;22;20442;-96
2021/03/23 11:01:23;;;;;;;26.67;12.73;;;1.80;99.90;;;;;;6289460;22;20369;-92
2021/03/23 11:04:58;;;;;;;26.27;12.90;;;1.70;99.90;;;;;;6167123;23;20397;-92
2021/03/23 11:08:03;;;;;;;28.15;12.55;;;1.90;99.90;;;;;;6108403;23;20397;-93
2021/03/23 11:17:16;;;;;;;26.65;12.50;;;2.00;99.90;;;;;;6273277;22;20428;-93
2021/03/23 11:22:42;;;;;;;27.98;11.15;;;2.10;99.90;;;;;;6312168;22;20494;-92
2021/03/23 11:25:30;;;;;;;25.33;11.93;;;2.10;99.90;;;;;;6294227;22;21421;-98
2021/03/23 11:31:48;;;;;;;24.35;11.82;;;2.10;99.90;;;;;;6350826;22;20373;-92
2021/03/23 11:44:54;;;;;;;15.88;7.32;;;2.20;99.90;;;;;;6327418;22;20468;-95
2021/03/23 11:48:12;;;;;;;18.98;9.15;;;2.20;99.90;;;;;;6243074;22;20439;-94
2021/03/23 11:52:04;;;;;;;17.67;8.57;;;2.00;99.90;;;;;;6308574;22;20403;-96
2021/03/23 11:55:31;;;;;;;25.45;11.80;;;2.10;99.90;;;;;;6319548;22;20387;-95
2021/03/23 12:01:15;;;;;;;19.88;7.47;;;2.20;99.90;;;;;;6338315;22;20706;-95
2021/03/23 12:06:50;;;;;;;19.80;11.10;;;2.50;99.90;;;;;;6343996;22;20407;-96
2021/03/23 12:15:55;;;;;;;24.30;9.70;;;2.40;99.90;;;;;;6318886;22;20398;-96
2021/03/23 12:30:16;;;;;;;23.70;11.75;;;2.60;99.90;;;;;;6329384;22;20410;-96
2021/03/23 12:35:40;;;;;;;17.52;9.38;;;2.70;99.90;;;;;;6343825;22;20392;-92
2021/03/23 13:27:44;;;;;;;16.70;8.25;;;3.60;99.40;;;;;;6310296;22;20384;-96
2021/03/23 13:36:25;;;;;;;21.42;8.85;;;3.30;99.90;;;;;;6328627;22;20372;-96
2021/03/23 14:14:57;;;;;;;18.20;9.65;;;2.80;99.90;;;;;;6274364;22;20378;-91
2021/03/23 14:20:45;;;;;;;18.52;9.43;;;2.90;99.90;;;;;;6327058;22;20390;-95
2021/03/23 14:23:46;;;;;;;19.80;9.40;;;3.00;99.90;;;;;;6293066;22;20382;-96
2021/03/23 14:26:22;;;;;;;17.93;7.77;;;3.00;99.90;;;;;;6293370;22;20371;-93
2021/03/23 14:29:24;;;;;;;25.05;9.73;;;2.90;99.90;;;;;;6318961;22;20428;-92
2021/03/23 14:32:35;;;;;;;22.30;9.52;;;3.00;99.90;;;;;;6208516;23;20380;-92
2021/03/23 14:35:49;;;;;;;21.67;9.90;;;3.00;99.90;;;;;;6228511;23;20891;-92
2021/03/23 14:42:23;;;;;;;26.67;11.70;;;2.90;99.90;;;;;;6320434;22;20379;-93
2021/03/23 14:45:43;;;;;;;24.67;12.18;;;2.60;99.90;;;;;;6326974;22;20390;-93
2021/03/23 14:48:57;;;;;;;27.50;11.30;;;2.40;99.90;;;;;;6256659;22;20386;-92
2021/03/23 14:52:30;;;;;;;25.20;10.50;;;2.40;99.90;;;;;;6318051;22;20382;-93
2021/03/23 14:55:49;;;;;;;21.70;11.77;;;2.40;99.90;;;;;;6172422;23;20445;-93
2021/03/23 14:59:30;;;;;;;22.63;9.65;;;2.40;99.90;;;;;;6170664;23;20383;-92
2021/03/23 15:03:06;;;;;;;27.48;12.38;;;2.30;99.90;;;;;;6080941;23;20436;-92
2021/03/23 15:06:44;;;;;;;24.30;11.57;;;2.40;99.90;;;;;;6081182;23;20434;-92
2021/03/23 15:10:17;;;;;;;25.08;10.35;;;2.50;99.90;;;;;;6069570;23;20474;-93
2021/03/23 15:13:14;;;;;;;21.42;10.68;;;2.60;99.90;;;;;;6083551;23;20391;-93
2021/03/23 15:16:28;;;;;;;26.75;12.45;;;2.60;99.90;;;;;;6025806;23;20374;-92
2021/03/23 15:19:46;;;;;;;21.17;10.70;;;2.60;99.90;;;;;;6023222;23;20377;-92
2021/03/23 15:25:31;;;;;;;26.43;12.17;;;2.30;99.90;;;;;;6340643;22;20389;-93
2021/03/23 15:28:21;;;;;;;14.30;7.75;;;2.20;99.90;;;;;;6352056;22;20393;-93
2021/03/23 15:31:48;;;;;;;19.90;10.82;;;2.20;99.90;;;;;;6255421;22;20353;-92
2021/03/23 15:34:52;;;;;;;24.88;10.40;;;2.10;99.90;;;;;;6327356;22;20379;-92
2021/03/23 15:38:34;;;;;;;18.40;9.02;;;2.10;99.90;;;;;;6321924;22;20366;-94
2021/03/23 15:49:55;;;;;;;25.42;11.15;;;2.00;99.90;;;;;;6336912;22;20385;-92
2021/03/23 15:53:24;;;;;;;23.08;10.40;;;2.00;99.90;;;;;;6330169;22;20360;-91
2021/03/23 15:57:04;;;;;;;20.60;10.57;;;2.00;99.90;;;;;;6350713;22;20418;-94
2021/03/23 16:00:25;;;;;;;21.57;11.20;;;1.90;99.90;;;;;;6231757;22;20372;-92
2021/03/23 16:03:18;;;;;;;19.08;10.02;;;1.90;99.90;;;;;;6286676;22;20436;-92
2021/03/23 16:07:08;;;;;;;20.40;11.05;;;2.00;99.90;;;;;;6323316;22;20385;-92
2021/03/23 16:10:14;;;;;;;19.42;9.48;;;1.80;99.90;;;;;;6341720;22;20373;-94
2021/03/23 16:13:45;;;;;;;22.08;10.05;;;1.90;99.90;;;;;;6195707;23;20420;-94
2021/03/23 16:16:59;;;;;;;21.83;9.77;;;1.90;99.90;;;;;;6184159;23;20847;-92
2021/03/23 16:20:14;;;;;;;21.10;10.35;;;1.90;99.90;;;;;;6252615;23;20389;-92
2021/03/23 16:23:29;;;;;;;20.02;11.10;;;1.80;99.90;;;;;;6240594;23;20393;-93
2021/03/23 16:26:21;;;;;;;25.38;11.52;;;1.80;99.90;;;;;;6195789;23;20374;-91
2021/03/23 16:28:56;;;;;;;20.05;10.90;;;1.80;99.90;;;;;;6206054;23;20400;-94
2021/03/23 16:31:48;;;;;;;26.27;12.25;;;1.80;99.90;;;;;;6228637;23;20390;-92
2021/03/23 16:34:33;;;;;;;21.47;10.63;;;1.70;99.90;;;;;;6208465;23;20366;-95
2021/03/23 16:37:37;;;;;;;26.55;11.80;;;1.70;99.90;;;;;;6254701;22;20378;-93
2021/03/23 16:40:46;;;;;;;23.20;11.80;;;1.80;99.90;;;;;;6193226;23;20440;-93
2021/03/23 16:44:21;;;;;;;25.07;12.47;;;1.70;99.90;;;;;;6259659;23;20454;-92
2021/03/23 16:47:47;;;;;;;20.77;11.97;;;1.60;99.90;;;;;;6234737;23;20374;-92
2021/03/23 16:51:37;;;;;;;24.77;12.03;;;1.60;99.90;;;;;;6153161;23;20381;-93
2021/03/23 16:55:17;;;;;;;22.33;12.07;;;1.60;99.90;;;;;;6140705;23;20404;-92
2021/03/23 16:58:10;;;;;;;24.25;11.95;;;1.60;99.90;;;;;;6144811;22;20452;-89
2021/03/23 17:01:47;;;;;;;27.45;12.07;;;1.60;99.90;;;;;;6195278;23;20388;-92
2021/03/23 17:05:07;;;;;;;22.15;12.40;;;1.60;99.90;;;;;;6288449;22;20413;-92
2021/03/23 17:14:41;;;;;;;23.05;12.38;;;1.60;99.90;;;;;;6273746;22;20460;-94
2021/03/23 17:17:36;;;;;;;25.38;12.25;;;1.60;99.90;;;;;;6298468;22;20378;-94
2021/03/23 17:21:01;;;;;;;26.63;13.13;;;1.60;99.90;;;;;;6247830;22;20366;-94
2021/03/23 17:24:24;;;;;;;22.73;12.55;;;1.50;99.90;;;;;;6187568;23;20438;-94
2021/03/23 17:30:58;;;;;;;26.17;12.63;;;1.60;99.90;;;;;;6195037;23;20412;-94
2021/03/23 18:47:31;;;;;;;21.90;12.05;;;1.40;99.90;;;;;;6249155;22;20368;31
2021/03/23 21:35:53;;;;;;;16.07;9.67;;;1.40;99.90;;;;;;6345966;22;20397;-93
2021/03/23 21:38:50;;;;;;;20.02;10.02;;;1.40;99.90;;;;;;6320892;22;20365;-93
2021/03/23 21:41:24;;;;;;;17.80;9.98;;;1.40;99.90;;;;;;6322088;22;20858;-92
2021/03/23 21:44:32;;;;;;;20.25;9.93;;;1.30;99.90;;;;;;6332974;22;20377;-94
2021/03/23 21:59:00;;;;;;;18.05;9.95;;;1.40;99.90;;;;;;6358166;22;20619;-95
2021/03/23 22:02:18;;;;;;;15.63;9.48;;;1.50;99.90;;;;;;6253153;22;20406;-95
